createdAt,value
2023-10-11T00:00:31.434Z,93.66
2023-10-11T00:01:31.465Z,93.76
2023-10-11T00:02:31.396Z,93.86
2023-10-11T00:03:31.482Z,93.86
2023-10-11T00:04:31.434Z,93.86
2023-10-11T00:05:31.359Z,93.86
2023-10-11T00:06:31.350Z,93.86
2023-10-11T00:07:31.335Z,93.76
2023-10-11T00:08:31.429Z,93.76
2023-10-11T00:09:31.315Z,93.66
2023-10-11T00:10:31.283Z,93.35
2023-10-11T00:11:31.276Z,93.25
2023-10-11T00:12:31.276Z,93.25
2023-10-11T00:13:31.261Z,93.25
2023-10-11T00:14:31.252Z,93.35
2023-10-11T00:15:31.236Z,93.50
2023-10-11T00:16:31.204Z,93.50
2023-10-11T00:17:31.234Z,93.50
2023-10-11T00:18:31.298Z,93.50
2023-10-11T00:19:31.205Z,93.40
2023-10-11T00:20:31.171Z,93.40
2023-10-11T00:21:31.164Z,93.40
2023-10-11T00:22:31.137Z,92.99
2023-10-11T00:23:31.134Z,92.79
2023-10-11T00:24:31.111Z,92.79
2023-10-11T00:25:31.102Z,92.89
2023-10-11T00:26:31.070Z,93.03
2023-10-11T00:27:31.082Z,93.24
2023-10-11T00:28:31.064Z,93.44
2023-10-11T00:29:31.047Z,93.64
2023-10-11T00:30:31.174Z,93.74
2023-10-11T00:31:31.027Z,93.64
2023-10-11T00:32:31.033Z,93.64
2023-10-11T00:33:38.828Z,93.54
2023-10-11T00:34:31.965Z,93.54
2023-10-11T00:35:30.947Z,93.64
2023-10-11T00:36:30.945Z,93.64
2023-10-11T00:37:30.940Z,93.54
2023-10-11T00:38:30.926Z,93.33
2023-10-11T00:39:30.890Z,93.33
2023-10-11T00:40:30.892Z,93.54
2023-10-11T00:41:30.868Z,93.74
2023-10-11T00:42:30.876Z,93.85
2023-10-11T00:43:30.857Z,93.74
2023-10-11T00:44:30.850Z,93.74
2023-10-11T00:45:30.811Z,93.74
2023-10-11T00:46:30.826Z,93.64
2023-10-11T00:47:30.842Z,93.74
2023-10-11T00:48:30.899Z,93.44
2023-10-11T00:49:30.761Z,93.03
2023-10-11T00:50:30.748Z,93.03
2023-10-11T00:51:30.841Z,93.07
2023-10-11T00:52:30.739Z,93.07
2023-10-11T00:53:30.722Z,93.18
2023-10-11T00:54:30.692Z,93.28
2023-10-11T00:55:30.687Z,93.38
2023-10-11T00:56:30.672Z,93.59
2023-10-11T00:57:30.665Z,93.59
2023-10-11T00:58:30.637Z,93.59
2023-10-11T00:59:30.628Z,93.48
2023-10-11T01:00:30.613Z,93.38
2023-10-11T01:01:30.638Z,93.38
2023-10-11T01:02:30.872Z,93.48
2023-10-11T01:03:30.663Z,93.59
2023-10-11T01:04:30.697Z,93.69
2023-10-11T01:05:30.541Z,93.69
2023-10-11T01:06:30.555Z,93.59
2023-10-11T01:07:30.513Z,93.59
2023-10-11T01:08:30.503Z,93.59
2023-10-11T01:09:30.502Z,93.59
2023-10-11T01:10:30.515Z,93.59
2023-10-11T01:11:30.478Z,93.59
2023-10-11T01:12:30.449Z,93.54
2023-10-11T01:13:30.439Z,93.54
2023-10-11T01:14:30.424Z,93.44
2023-10-11T01:15:30.404Z,93.33
2023-10-11T01:16:30.450Z,93.24
2023-10-11T01:17:30.397Z,93.24
2023-10-11T01:18:30.419Z,93.24
2023-10-11T01:19:30.346Z,93.33
2023-10-11T01:20:30.346Z,93.44
2023-10-11T01:21:30.341Z,93.44
2023-10-11T01:22:30.314Z,93.59
2023-10-11T01:23:30.297Z,93.54
2023-10-11T01:24:30.306Z,93.54
2023-10-11T01:25:30.272Z,93.59
2023-10-11T01:26:30.280Z,93.59
2023-10-11T01:27:30.240Z,93.59
2023-10-11T01:28:30.230Z,93.48
2023-10-11T01:29:30.219Z,93.48
2023-10-11T01:30:30.202Z,93.38
2023-10-11T01:31:30.205Z,93.07
2023-10-11T01:32:30.225Z,92.97
2023-10-11T01:33:30.254Z,93.07
2023-10-11T01:34:30.176Z,93.18
2023-10-11T01:35:30.133Z,93.28
2023-10-11T01:36:30.148Z,93.28
2023-10-11T01:37:30.112Z,93.28
2023-10-11T01:38:30.141Z,93.07
2023-10-11T01:39:30.110Z,92.77
2023-10-11T01:40:30.069Z,92.71
2023-10-11T01:41:30.090Z,92.61
2023-10-11T01:42:30.045Z,92.71
2023-10-11T01:43:30.054Z,93.02
2023-10-11T01:44:30.020Z,93.22
2023-10-11T01:45:30.000Z,93.32
2023-10-11T01:46:30.051Z,93.32
2023-10-11T01:47:29.999Z,93.32
2023-10-11T01:48:30.062Z,93.43
2023-10-11T01:49:29.947Z,93.52
2023-10-11T01:50:29.997Z,93.52
2023-10-11T01:51:29.930Z,93.47
2023-10-11T01:52:29.955Z,93.43
2023-10-11T01:53:29.892Z,93.52
2023-10-11T01:54:29.883Z,93.52
2023-10-11T01:55:29.864Z,93.57
2023-10-11T01:56:29.874Z,93.47
2023-10-11T01:57:29.836Z,93.47
2023-10-11T01:58:29.828Z,93.37
2023-10-11T01:59:29.816Z,93.26
2023-10-11T02:00:29.799Z,93.16
2023-10-11T02:01:29.871Z,93.26
2023-10-11T02:02:29.817Z,93.47
2023-10-11T02:03:29.794Z,93.47
2023-10-11T02:04:29.755Z,93.47
2023-10-11T02:05:29.772Z,93.26
2023-10-11T02:06:29.733Z,92.96
2023-10-11T02:07:29.708Z,92.76
2023-10-11T02:08:29.690Z,92.76
2023-10-11T02:09:29.722Z,92.69
2023-10-11T02:10:29.679Z,92.69
2023-10-11T02:11:29.652Z,93.00
2023-10-11T02:12:29.642Z,93.31
2023-10-11T02:13:29.624Z,93.51
2023-10-11T02:14:29.675Z,93.62
2023-10-11T02:15:29.626Z,93.71
2023-10-11T02:16:29.862Z,93.62
2023-10-11T02:17:29.578Z,93.62
2023-10-11T02:18:29.636Z,93.62
2023-10-11T02:19:29.544Z,93.51
2023-10-11T02:20:29.563Z,93.41
2023-10-11T02:21:29.520Z,93.41
2023-10-11T02:22:29.502Z,93.31
2023-10-11T02:23:29.493Z,93.10
2023-10-11T02:24:29.489Z,93.10
2023-10-11T02:25:29.494Z,93.21
2023-10-11T02:26:29.450Z,93.21
2023-10-11T02:27:29.436Z,93.00
2023-10-11T02:28:29.422Z,93.00
2023-10-11T02:29:29.464Z,93.10
2023-10-11T02:30:29.391Z,93.10
2023-10-11T02:31:29.419Z,93.10
2023-10-11T02:32:29.375Z,93.10
2023-10-11T02:33:29.486Z,93.10
2023-10-11T02:34:29.401Z,93.00
2023-10-11T02:35:29.334Z,92.90
2023-10-11T02:36:29.308Z,92.80
2023-10-11T02:37:29.302Z,92.69
2023-10-11T02:38:29.285Z,92.84
2023-10-11T02:39:29.292Z,92.69
2023-10-11T02:40:29.256Z,92.64
2023-10-11T02:41:29.251Z,92.43
2023-10-11T02:42:29.230Z,92.54
2023-10-11T02:43:29.233Z,92.33
2023-10-11T02:44:29.229Z,92.43
2023-10-11T02:45:29.202Z,92.64
2023-10-11T02:46:29.186Z,92.94
2023-10-11T02:47:29.173Z,93.05
2023-10-11T02:48:29.186Z,93.15
2023-10-11T02:49:29.149Z,92.94
2023-10-11T02:50:29.139Z,92.74
2023-10-11T02:51:29.111Z,92.54
2023-10-11T02:52:29.099Z,92.64
2023-10-11T02:53:29.106Z,92.74
2023-10-11T02:54:29.087Z,92.84
2023-10-11T02:55:29.052Z,92.64
2023-10-11T02:56:29.046Z,92.33
2023-10-11T02:57:29.114Z,92.43
2023-10-11T02:58:29.031Z,92.54
2023-10-11T02:59:29.015Z,92.64
2023-10-11T03:00:28.984Z,92.58
2023-10-11T03:01:29.005Z,92.43
2023-10-11T03:02:29.044Z,92.58
2023-10-11T03:03:29.110Z,92.68
2023-10-11T03:04:28.940Z,92.68
2023-10-11T03:05:28.915Z,92.78
2023-10-11T03:06:28.909Z,92.58
2023-10-11T03:07:28.888Z,92.17
2023-10-11T03:08:28.901Z,91.96
2023-10-11T03:09:31.074Z,92.07
2023-10-11T03:10:28.859Z,92.27
2023-10-11T03:11:28.838Z,92.47
2023-10-11T03:12:28.943Z,92.37
2023-10-11T03:13:28.828Z,92.07
2023-10-11T03:14:28.800Z,91.66
2023-10-11T03:15:28.801Z,91.46
2023-10-11T03:16:28.775Z,91.46
2023-10-11T03:17:28.800Z,91.76
2023-10-11T03:18:28.849Z,92.07
2023-10-11T03:19:28.727Z,92.27
2023-10-11T03:20:28.725Z,92.37
2023-10-11T03:21:28.722Z,92.47
2023-10-11T03:22:28.744Z,92.47
2023-10-11T03:23:28.671Z,92.47
2023-10-11T03:24:28.678Z,92.47
2023-10-11T03:25:28.653Z,92.17
2023-10-11T03:26:28.652Z,91.91
2023-10-11T03:27:28.656Z,91.70
2023-10-11T03:28:28.637Z,91.80
2023-10-11T03:29:28.596Z,91.80
2023-10-11T03:30:28.590Z,91.80
2023-10-11T03:31:28.617Z,91.91
2023-10-11T03:32:28.641Z,92.01
2023-10-11T03:33:28.685Z,92.32
2023-10-11T03:34:28.531Z,92.52
2023-10-11T03:35:28.523Z,92.52
2023-10-11T03:36:28.520Z,92.32
2023-10-11T03:37:28.493Z,92.21
2023-10-11T03:38:28.476Z,92.32
2023-10-11T03:39:28.451Z,92.32
2023-10-11T03:40:28.461Z,92.52
2023-10-11T03:41:28.450Z,92.72
2023-10-11T03:42:28.421Z,92.72
2023-10-11T03:43:28.406Z,92.62
2023-10-11T03:44:28.397Z,92.52
2023-10-11T03:45:28.401Z,92.42
2023-10-11T03:46:28.369Z,92.32
2023-10-11T03:47:28.448Z,92.42
2023-10-11T03:48:28.421Z,92.42
2023-10-11T03:49:28.325Z,92.11
2023-10-11T03:50:28.332Z,92.05
2023-10-11T03:51:28.301Z,91.95
2023-10-11T03:52:28.288Z,91.95
2023-10-11T03:53:28.273Z,92.05
2023-10-11T03:54:28.291Z,92.25
2023-10-11T03:55:28.262Z,92.46
2023-10-11T03:56:28.232Z,92.56
2023-10-11T03:57:28.223Z,92.56
2023-10-11T03:58:28.212Z,92.56
2023-10-11T03:59:28.217Z,92.46
2023-10-11T04:00:28.235Z,92.25
2023-10-11T04:01:28.202Z,91.85
2023-10-11T04:02:28.177Z,91.74
2023-10-11T04:03:28.250Z,91.85
2023-10-11T04:04:28.222Z,91.95
2023-10-11T04:05:28.110Z,91.85
2023-10-11T04:06:28.103Z,91.95
2023-10-11T04:07:28.083Z,92.05
2023-10-11T04:08:28.113Z,91.85
2023-10-11T04:09:28.100Z,91.85
2023-10-11T04:10:28.043Z,91.95
2023-10-11T04:11:28.029Z,91.95
2023-10-11T04:12:28.050Z,92.10
2023-10-11T04:13:28.030Z,92.19
2023-10-11T04:14:27.991Z,92.19
2023-10-11T04:15:27.971Z,92.19
2023-10-11T04:16:27.969Z,92.30
2023-10-11T04:17:28.055Z,92.50
2023-10-11T04:18:28.102Z,92.71
2023-10-11T04:19:29.793Z,92.81
2023-10-11T04:20:27.912Z,92.81
2023-10-11T04:21:27.894Z,92.56
2023-10-11T04:22:27.920Z,92.19
2023-10-11T04:23:27.895Z,92.10
2023-10-11T04:24:28.014Z,92.19
2023-10-11T04:25:27.844Z,92.10
2023-10-11T04:26:27.832Z,92.10
2023-10-11T04:27:27.845Z,92.10
2023-10-11T04:28:27.812Z,92.10
2023-10-11T04:29:27.796Z,92.30
2023-10-11T04:30:27.858Z,92.50
2023-10-11T04:31:27.793Z,92.60
2023-10-11T04:32:27.790Z,92.81
2023-10-11T04:33:27.831Z,92.81
2023-10-11T04:34:27.739Z,92.71
2023-10-11T04:35:27.725Z,92.81
2023-10-11T04:36:27.720Z,92.91
2023-10-11T04:37:27.708Z,93.01
2023-10-11T04:38:27.679Z,93.07
2023-10-11T04:39:27.697Z,92.91
2023-10-11T04:40:27.651Z,92.81
2023-10-11T04:41:27.650Z,92.71
2023-10-11T04:42:27.632Z,92.71
2023-10-11T04:43:27.610Z,92.81
2023-10-11T04:44:27.595Z,92.91
2023-10-11T04:45:30.570Z,93.01
2023-10-11T04:46:28.627Z,93.22
2023-10-11T04:47:27.688Z,93.22
2023-10-11T04:48:27.607Z,93.32
2023-10-11T04:49:27.564Z,93.32
2023-10-11T04:50:27.527Z,93.22
2023-10-11T04:51:27.574Z,93.01
2023-10-11T04:52:27.484Z,96.25
2023-10-11T04:53:27.481Z,99.93
2023-10-11T04:54:27.484Z,99.99
2023-10-11T04:55:27.475Z,99.90
2023-10-11T04:56:27.469Z,99.85
2023-10-11T04:57:27.455Z,98.79
2023-10-11T04:58:27.404Z,96.19
2023-10-11T04:59:27.405Z,91.97
2023-10-11T05:00:27.539Z,87.73
2023-10-11T05:01:27.373Z,88.65
2023-10-11T05:02:27.418Z,86.41
2023-10-11T05:03:27.434Z,86.55
2023-10-11T05:04:27.468Z,89.61
2023-10-11T05:05:27.353Z,89.77
2023-10-11T05:06:27.333Z,88.14
2023-10-11T05:07:27.312Z,87.38
2023-10-11T05:08:27.273Z,87.29
2023-10-11T05:09:27.380Z,87.38
2023-10-11T05:10:27.256Z,86.74
2023-10-11T05:11:27.237Z,85.00
2023-10-11T05:12:27.267Z,84.29
2023-10-11T05:13:27.214Z,82.56
2023-10-11T05:14:27.225Z,84.90
2023-10-11T05:15:27.212Z,85.00
2023-10-11T05:16:27.164Z,83.37
2023-10-11T05:17:27.161Z,81.88
2023-10-11T05:18:27.171Z,81.52
2023-10-11T05:19:27.164Z,82.37
2023-10-11T05:20:27.108Z,83.43
2023-10-11T05:21:27.191Z,84.39
2023-10-11T05:22:27.087Z,85.24
2023-10-11T05:23:27.128Z,86.20
2023-10-11T05:24:27.108Z,86.76
2023-10-11T05:25:27.045Z,87.26
2023-10-11T05:26:27.034Z,87.92
2023-10-11T05:27:27.033Z,88.64
2023-10-11T05:28:27.020Z,89.18
2023-10-11T05:29:26.993Z,89.70
2023-10-11T05:30:27.025Z,90.00
2023-10-11T05:31:26.972Z,90.05
2023-10-11T05:32:26.983Z,90.15
2023-10-11T05:33:27.031Z,90.60
2023-10-11T05:34:26.925Z,91.01
2023-10-11T05:35:28.062Z,91.01
2023-10-11T05:36:26.929Z,91.22
2023-10-11T05:37:26.904Z,91.52
2023-10-11T05:38:26.893Z,91.93
2023-10-11T05:39:26.882Z,92.03
2023-10-11T05:40:26.855Z,91.93
2023-10-11T05:41:26.832Z,92.03
2023-10-11T05:42:26.880Z,91.93
2023-10-11T05:43:26.813Z,91.93
2023-10-11T05:44:26.789Z,92.08
2023-10-11T05:45:26.874Z,92.18
2023-10-11T05:46:26.805Z,92.18
2023-10-11T05:47:26.817Z,92.18
2023-10-11T05:48:26.953Z,92.28
2023-10-11T05:49:26.731Z,92.49
2023-10-11T05:50:26.706Z,92.59
2023-10-11T05:51:26.774Z,92.69
2023-10-11T05:52:26.773Z,92.59
2023-10-11T05:53:26.807Z,92.59
2023-10-11T05:54:26.789Z,92.28
2023-10-11T05:55:26.651Z,92.08
2023-10-11T05:56:26.682Z,92.08
2023-10-11T05:57:26.626Z,91.97
2023-10-11T05:58:26.597Z,92.08
2023-10-11T05:59:26.598Z,92.18
2023-10-11T06:00:26.628Z,92.28
2023-10-11T06:01:26.602Z,92.18
2023-10-11T06:02:26.565Z,92.28
2023-10-11T06:03:26.672Z,92.49
2023-10-11T06:04:26.533Z,92.69
2023-10-11T06:05:26.600Z,92.90
2023-10-11T06:06:26.596Z,92.90
2023-10-11T06:07:26.485Z,92.59
2023-10-11T06:08:26.464Z,92.59
2023-10-11T06:09:26.496Z,92.69
2023-10-11T06:10:26.521Z,92.79
2023-10-11T06:11:26.438Z,92.90
2023-10-11T06:12:26.464Z,92.90
2023-10-11T06:13:26.414Z,92.90
2023-10-11T06:14:26.404Z,93.00
2023-10-11T06:15:26.433Z,93.10
2023-10-11T06:16:29.525Z,93.06
2023-10-11T06:17:26.377Z,92.96
2023-10-11T06:18:26.426Z,92.85
2023-10-11T06:19:26.355Z,92.75
2023-10-11T06:20:26.332Z,92.55
2023-10-11T06:21:26.340Z,92.55
2023-10-11T06:22:26.282Z,92.55
2023-10-11T06:23:26.267Z,92.55
2023-10-11T06:24:26.325Z,92.55
2023-10-11T06:25:26.268Z,92.65
2023-10-11T06:26:26.223Z,92.65
2023-10-11T06:27:26.315Z,92.65
2023-10-11T06:28:26.201Z,92.55
2023-10-11T06:29:26.209Z,92.65
2023-10-11T06:30:26.288Z,92.85
2023-10-11T06:31:26.247Z,92.96
2023-10-11T06:32:26.433Z,92.96
2023-10-11T06:33:26.235Z,92.85
2023-10-11T06:34:26.145Z,92.85
2023-10-11T06:35:26.139Z,92.75
2023-10-11T06:36:26.119Z,92.75
2023-10-11T06:37:26.163Z,92.85
2023-10-11T06:38:26.081Z,92.91
2023-10-11T06:39:26.090Z,93.12
2023-10-11T06:40:26.049Z,93.01
2023-10-11T06:41:26.042Z,93.01
2023-10-11T06:42:26.182Z,93.12
2023-10-11T06:43:26.016Z,93.32
2023-10-11T06:44:26.001Z,93.32
2023-10-11T06:45:26.066Z,93.22
2023-10-11T06:46:26.087Z,93.22
2023-10-11T06:47:25.983Z,93.07
2023-10-11T06:48:26.023Z,92.97
2023-10-11T06:49:25.925Z,93.07
2023-10-11T06:50:26.185Z,92.97
2023-10-11T06:51:25.948Z,92.97
2023-10-11T06:52:25.894Z,92.97
2023-10-11T06:53:25.863Z,92.87
2023-10-11T06:54:25.871Z,92.97
2023-10-11T06:55:25.841Z,93.07
2023-10-11T06:56:25.830Z,93.28
2023-10-11T06:57:25.881Z,93.28
2023-10-11T06:58:25.791Z,93.48
2023-10-11T06:59:25.800Z,93.69
2023-10-11T07:00:26.156Z,93.79
2023-10-11T07:01:25.777Z,93.79
2023-10-11T07:02:25.769Z,93.85
2023-10-11T07:03:25.834Z,93.95
2023-10-11T07:04:25.811Z,94.06
2023-10-11T07:05:25.706Z,94.06
2023-10-11T07:06:25.721Z,94.06
2023-10-11T07:07:25.672Z,93.91
2023-10-11T07:08:25.673Z,93.80
2023-10-11T07:09:25.686Z,93.70
2023-10-11T07:10:25.714Z,93.60
2023-10-11T07:11:25.656Z,93.70
2023-10-11T07:12:25.681Z,93.70
2023-10-11T07:13:25.602Z,93.66
2023-10-11T07:14:25.605Z,93.76
2023-10-11T07:15:25.708Z,93.76
2023-10-11T07:16:25.617Z,93.66
2023-10-11T07:17:25.593Z,93.55
2023-10-11T07:18:25.665Z,93.45
2023-10-11T07:19:25.534Z,93.55
2023-10-11T07:20:25.521Z,93.66
2023-10-11T07:21:25.575Z,93.76
2023-10-11T07:22:25.479Z,93.96
2023-10-11T07:23:25.516Z,93.96
2023-10-11T07:24:25.534Z,93.92
2023-10-11T07:25:25.461Z,93.92
2023-10-11T07:26:25.428Z,93.92
2023-10-11T07:27:25.447Z,93.82
2023-10-11T07:28:25.401Z,93.82
2023-10-11T07:29:25.426Z,93.71
2023-10-11T07:30:25.480Z,93.67
2023-10-11T07:31:25.395Z,93.57
2023-10-11T07:32:25.463Z,93.47
2023-10-11T07:33:25.505Z,93.37
2023-10-11T07:34:25.422Z,93.26
2023-10-11T07:35:25.308Z,93.37
2023-10-11T07:36:27.967Z,93.37
2023-10-11T07:37:25.279Z,93.47
2023-10-11T07:38:25.270Z,93.52
2023-10-11T07:39:25.336Z,93.52
2023-10-11T07:40:25.258Z,93.52
2023-10-11T07:41:25.510Z,93.52
2023-10-11T07:42:25.251Z,93.52
2023-10-11T07:43:25.256Z,93.52
2023-10-11T07:44:25.208Z,93.48
2023-10-11T07:45:25.238Z,93.48
2023-10-11T07:46:25.230Z,93.48
2023-10-11T07:47:25.320Z,93.38
2023-10-11T07:48:25.273Z,93.33
2023-10-11T07:49:25.942Z,93.33
2023-10-11T07:50:25.104Z,93.33
2023-10-11T07:51:25.149Z,93.33
2023-10-11T07:52:25.090Z,93.40
2023-10-11T07:53:25.086Z,93.40
2023-10-11T07:54:25.082Z,93.50
2023-10-11T07:55:25.037Z,93.40
2023-10-11T07:56:25.039Z,93.29
2023-10-11T07:57:25.072Z,93.19
2023-10-11T07:58:25.019Z,93.05
2023-10-11T07:59:25.522Z,92.94
2023-10-11T08:00:25.010Z,92.84
2023-10-11T08:01:24.989Z,92.74
2023-10-11T08:02:24.995Z,92.64
2023-10-11T08:03:25.081Z,92.64
2023-10-11T08:04:24.932Z,92.40
2023-10-11T08:05:24.918Z,92.40
2023-10-11T08:06:24.916Z,92.29
2023-10-11T08:07:24.914Z,92.19
2023-10-11T08:08:24.858Z,91.78
2023-10-11T08:09:24.925Z,91.58
2023-10-11T08:10:24.862Z,91.38
2023-10-11T08:11:24.838Z,91.38
2023-10-11T08:12:25.070Z,91.38
2023-10-11T08:13:24.797Z,91.43
2023-10-11T08:14:24.790Z,91.43
2023-10-11T08:15:24.881Z,91.43
2023-10-11T08:16:24.855Z,91.43
2023-10-11T08:17:24.738Z,91.53
2023-10-11T08:18:24.816Z,91.64
2023-10-11T08:19:24.725Z,91.64
2023-10-11T08:20:24.725Z,91.69
2023-10-11T08:21:24.751Z,91.49
2023-10-11T08:22:24.687Z,91.29
2023-10-11T08:23:24.662Z,91.19
2023-10-11T08:24:24.680Z,91.09
2023-10-11T08:25:24.685Z,90.99
2023-10-11T08:26:28.591Z,91.09
2023-10-11T08:27:24.676Z,91.19
2023-10-11T08:28:24.599Z,91.19
2023-10-11T08:29:24.580Z,91.14
2023-10-11T08:30:24.697Z,91.14
2023-10-11T08:31:24.603Z,91.05
2023-10-11T08:32:24.550Z,91.05
2023-10-11T08:33:24.611Z,91.05
2023-10-11T08:34:24.509Z,91.05
2023-10-11T08:35:24.618Z,91.35
2023-10-11T08:36:24.491Z,91.45
2023-10-11T08:37:24.475Z,91.30
2023-10-11T08:38:24.462Z,91.30
2023-10-11T08:39:24.452Z,91.41
2023-10-11T08:40:24.571Z,91.51
2023-10-11T08:41:24.429Z,91.51
2023-10-11T08:42:24.426Z,91.61
2023-10-11T08:43:24.399Z,91.61
2023-10-11T08:44:24.382Z,91.36
2023-10-11T08:45:24.454Z,91.36
2023-10-11T08:46:24.364Z,91.87
2023-10-11T08:47:24.375Z,91.87
2023-10-11T08:48:24.378Z,91.67
2023-10-11T08:49:24.353Z,91.56
2023-10-11T08:50:24.286Z,91.56
2023-10-11T08:51:24.378Z,91.56
2023-10-11T08:52:24.256Z,91.56
2023-10-11T08:53:24.260Z,91.47
2023-10-11T08:54:24.263Z,91.42
2023-10-11T08:55:24.230Z,91.73
2023-10-11T08:56:24.222Z,91.73
2023-10-11T08:57:24.233Z,91.83
2023-10-11T08:58:24.176Z,91.73
2023-10-11T08:59:24.190Z,91.63
2023-10-11T09:00:24.232Z,91.52
2023-10-11T09:01:24.214Z,91.38
2023-10-11T09:02:24.135Z,91.17
2023-10-11T09:03:24.319Z,90.97
2023-10-11T09:04:24.177Z,90.67
2023-10-11T09:05:24.747Z,89.86
2023-10-11T09:06:24.220Z,89.96
2023-10-11T09:07:24.069Z,90.06
2023-10-11T09:08:24.069Z,90.16
2023-10-11T09:09:24.140Z,90.47
2023-10-11T09:10:24.109Z,90.57
2023-10-11T09:11:24.007Z,90.77
2023-10-11T09:12:24.067Z,90.88
2023-10-11T09:13:23.997Z,90.97
2023-10-11T09:14:24.285Z,90.88
2023-10-11T09:15:24.062Z,90.67
2023-10-11T09:16:23.983Z,90.53
2023-10-11T09:17:23.930Z,90.22
2023-10-11T09:18:24.497Z,90.12
2023-10-11T09:19:23.902Z,89.81
2023-10-11T09:20:23.901Z,89.51
2023-10-11T09:21:23.889Z,89.31
2023-10-11T09:22:23.880Z,89.06
2023-10-11T09:23:23.864Z,88.96
2023-10-11T09:24:23.876Z,89.26
2023-10-11T09:25:23.839Z,89.06
2023-10-11T09:26:28.662Z,89.63
2023-10-11T09:27:24.825Z,89.83
2023-10-11T09:28:24.070Z,90.34
2023-10-11T09:29:23.765Z,90.40
2023-10-11T09:30:25.485Z,90.40
2023-10-11T09:31:23.746Z,90.09
2023-10-11T09:32:23.786Z,89.34
2023-10-11T09:33:23.863Z,88.94
2023-10-11T09:34:23.701Z,88.94
2023-10-11T09:35:23.681Z,89.20
2023-10-11T09:36:23.694Z,88.79
2023-10-11T09:37:24.313Z,88.09
2023-10-11T09:38:23.651Z,87.58
2023-10-11T09:39:23.702Z,88.45
2023-10-11T09:40:23.642Z,88.04
2023-10-11T09:41:23.623Z,88.25
2023-10-11T09:42:23.948Z,87.19
2023-10-11T09:43:23.570Z,86.79
2023-10-11T09:44:23.565Z,86.29
2023-10-11T09:45:23.677Z,85.78
2023-10-11T09:46:23.580Z,86.29
2023-10-11T09:47:23.518Z,85.84
2023-10-11T09:48:23.645Z,86.04
2023-10-11T09:49:23.492Z,86.85
2023-10-11T09:50:23.498Z,86.55
2023-10-11T09:51:23.525Z,85.64
2023-10-11T09:52:23.461Z,84.93
2023-10-11T09:53:23.441Z,84.33
2023-10-11T09:54:23.468Z,83.98
2023-10-11T09:55:23.426Z,84.09
2023-10-11T09:56:26.045Z,84.69
2023-10-11T09:57:23.426Z,84.49
2023-10-11T09:58:23.379Z,85.40
2023-10-11T09:59:23.387Z,85.16
2023-10-11T10:00:23.429Z,84.65
2023-10-11T10:01:23.386Z,85.25
2023-10-11T10:02:23.340Z,85.11
2023-10-11T10:03:23.399Z,85.42
2023-10-11T10:04:23.513Z,85.31
2023-10-11T10:05:23.294Z,85.62
2023-10-11T10:06:23.455Z,86.22
2023-10-11T10:07:23.253Z,85.38
2023-10-11T10:08:23.244Z,84.88
2023-10-11T10:09:23.440Z,84.27
2023-10-11T10:10:23.231Z,83.87
2023-10-11T10:11:23.209Z,83.87
2023-10-11T10:12:23.241Z,84.23
2023-10-11T10:13:23.174Z,83.42
2023-10-11T10:14:23.192Z,83.72
2023-10-11T10:15:23.274Z,82.62
2023-10-11T10:16:23.169Z,82.01
2023-10-11T10:17:23.123Z,82.78
2023-10-11T10:18:23.187Z,83.08
2023-10-11T10:19:23.203Z,81.67
2023-10-11T10:20:23.979Z,81.33
2023-10-11T10:21:23.102Z,81.43
2023-10-11T10:22:23.056Z,80.93
2023-10-11T10:23:23.067Z,80.73
2023-10-11T10:24:23.107Z,80.89
2023-10-11T10:25:23.138Z,80.79
2023-10-11T10:26:23.005Z,80.79
2023-10-11T10:27:23.076Z,80.75
2023-10-11T10:28:22.997Z,80.55
2023-10-11T10:29:22.957Z,80.35
2023-10-11T10:30:23.294Z,80.55
2023-10-11T10:31:23.287Z,80.91
2023-10-11T10:32:22.927Z,81.32
2023-10-11T10:33:23.029Z,81.41
2023-10-11T10:34:22.896Z,81.21
2023-10-11T10:35:22.894Z,81.18
2023-10-11T10:36:23.340Z,80.27
2023-10-11T10:37:22.847Z,79.77
2023-10-11T10:38:22.906Z,80.54
2023-10-11T10:39:23.097Z,81.14
2023-10-11T10:40:22.810Z,78.22
2023-10-11T10:41:22.787Z,74.11
2023-10-11T10:42:22.886Z,73.91
2023-10-11T10:43:22.977Z,74.41
2023-10-11T10:44:22.766Z,74.98
2023-10-11T10:45:22.830Z,75.78
2023-10-11T10:46:22.760Z,75.78
2023-10-11T10:47:22.747Z,74.18
2023-10-11T10:48:22.761Z,72.47
2023-10-11T10:49:22.699Z,72.27
2023-10-11T10:50:22.810Z,72.77
2023-10-11T10:51:22.687Z,72.67
2023-10-11T10:52:22.665Z,70.46
2023-10-11T10:53:22.702Z,69.02
2023-10-11T10:54:22.679Z,66.82
2023-10-11T10:55:22.607Z,64.11
2023-10-11T10:56:22.608Z,65.78
2023-10-11T10:57:22.639Z,64.98
2023-10-11T10:58:22.797Z,62.27
2023-10-11T10:59:22.548Z,62.84
2023-10-11T11:00:22.850Z,64.84
2023-10-11T11:01:22.622Z,61.94
2023-10-11T11:02:22.513Z,60.01
2023-10-11T11:03:22.797Z,59.00
2023-10-11T11:04:22.935Z,58.81
2023-10-11T11:05:22.476Z,59.88
2023-10-11T11:06:22.506Z,59.78
2023-10-11T11:07:22.439Z,63.39
2023-10-11T11:08:26.340Z,59.78
2023-10-11T11:09:22.425Z,58.28
2023-10-11T11:10:22.411Z,58.55
2023-10-11T11:11:22.408Z,57.95
2023-10-11T11:12:22.406Z,56.95
2023-10-11T11:13:22.365Z,56.45
2023-10-11T11:14:22.344Z,55.15
2023-10-11T11:15:22.542Z,56.82
2023-10-11T11:16:22.342Z,56.82
2023-10-11T11:17:22.304Z,58.12
2023-10-11T11:18:22.394Z,57.82
2023-10-11T11:19:22.307Z,56.62
2023-10-11T11:20:22.289Z,56.82
2023-10-11T11:21:22.277Z,59.32
2023-10-11T11:22:22.243Z,59.42
2023-10-11T11:23:22.224Z,57.92
2023-10-11T11:24:22.483Z,57.72
2023-10-11T11:25:22.215Z,58.82
2023-10-11T11:26:32.376Z,55.72
2023-10-11T11:27:23.206Z,55.52
2023-10-11T11:28:22.200Z,56.62
2023-10-11T11:29:22.165Z,56.49
2023-10-11T11:30:22.393Z,56.09
2023-10-11T11:31:22.173Z,52.49
2023-10-11T11:32:22.109Z,52.49
2023-10-11T11:33:22.181Z,52.49
2023-10-11T11:34:22.107Z,53.19
2023-10-11T11:35:22.064Z,54.77
2023-10-11T11:36:22.368Z,52.97
2023-10-11T11:37:22.056Z,52.77
2023-10-11T11:38:22.067Z,52.57
2023-10-11T11:39:22.083Z,53.17
2023-10-11T11:40:22.001Z,55.59
2023-10-11T11:41:28.558Z,52.09
2023-10-11T11:42:23.041Z,53.47
2023-10-11T11:43:22.238Z,54.97
2023-10-11T11:44:21.964Z,56.37
2023-10-11T11:45:21.951Z,56.67
2023-10-11T11:46:21.956Z,51.97
2023-10-11T11:47:21.904Z,49.37
2023-10-11T11:48:22.000Z,49.87
2023-10-11T11:49:22.048Z,50.87
2023-10-11T11:50:22.822Z,52.37
2023-10-11T11:51:21.925Z,50.97
2023-10-11T11:52:21.906Z,52.97
2023-10-11T11:53:22.057Z,51.27
2023-10-11T11:54:21.951Z,49.67
2023-10-11T11:55:21.816Z,50.47
2023-10-11T11:56:21.790Z,49.97
2023-10-11T11:57:22.030Z,49.74
2023-10-11T11:58:21.772Z,49.05
2023-10-11T11:59:21.743Z,50.74
2023-10-11T12:00:22.556Z,47.95
2023-10-11T12:01:21.716Z,48.63
2023-10-11T12:02:21.730Z,49.52
2023-10-11T12:03:21.813Z,50.12
2023-10-11T12:04:22.249Z,48.13
2023-10-11T12:05:21.660Z,48.72
2023-10-11T12:06:21.686Z,49.02
2023-10-11T12:07:21.651Z,47.92
2023-10-11T12:08:21.635Z,46.92
2023-10-11T12:09:21.650Z,47.33
2023-10-11T12:10:21.598Z,48.02
2023-10-11T12:11:21.613Z,48.52
2023-10-11T12:12:21.616Z,47.92
2023-10-11T12:13:21.557Z,48.63
2023-10-11T12:14:21.546Z,48.43
2023-10-11T12:15:21.555Z,47.53
2023-10-11T12:16:21.550Z,49.02
2023-10-11T12:17:21.504Z,50.32
2023-10-11T12:18:21.600Z,48.72
2023-10-11T12:19:21.505Z,48.72
2023-10-11T12:20:21.753Z,48.13
2023-10-11T12:21:21.487Z,47.03
2023-10-11T12:22:21.434Z,46.41
2023-10-11T12:23:21.415Z,47.50
2023-10-11T12:24:31.198Z,49.00
2023-10-11T12:25:22.408Z,48.10
2023-10-11T12:26:21.403Z,47.00
2023-10-11T12:27:22.312Z,47.60
2023-10-11T12:28:21.353Z,48.00
2023-10-11T12:29:21.336Z,48.80
2023-10-11T12:30:21.598Z,50.20
2023-10-11T12:31:21.350Z,48.40
2023-10-11T12:32:21.302Z,49.00
2023-10-11T12:33:21.445Z,47.90
2023-10-11T12:34:21.278Z,48.20
2023-10-11T12:35:21.282Z,49.40
2023-10-11T12:36:21.854Z,50.10
2023-10-11T12:37:21.284Z,48.50
2023-10-11T12:38:21.231Z,47.71
2023-10-11T12:39:21.370Z,47.83
2023-10-11T12:40:21.201Z,48.10
2023-10-11T12:41:21.187Z,49.40
2023-10-11T12:42:21.207Z,48.63
2023-10-11T12:43:21.152Z,48.80
2023-10-11T12:44:21.170Z,50.00
2023-10-11T12:45:21.164Z,48.93
2023-10-11T12:46:21.482Z,47.80
2023-10-11T12:47:21.099Z,48.30
2023-10-11T12:48:21.188Z,50.40
2023-10-11T12:49:21.093Z,49.50
2023-10-11T12:50:21.067Z,47.60
2023-10-11T12:51:21.102Z,47.71
2023-10-11T12:52:21.031Z,48.40